createdAt,value
2022-10-02T00:00:16.862Z,96437.00
2022-10-02T00:04:26.062Z,96438.00
2022-10-02T00:09:00.117Z,96438.00
2022-10-02T00:13:05.831Z,96447.00
2022-10-02T00:17:16.781Z,96458.00
2022-10-02T00:21:34.743Z,96457.00
2022-10-02T00:25:43.446Z,96461.00
2022-10-02T00:30:16.336Z,96473.00
2022-10-02T00:34:29.943Z,96478.00
2022-10-02T00:38:45.891Z,96487.00
2022-10-02T00:43:04.675Z,96491.00
2022-10-02T00:47:16.794Z,96493.00
2022-10-02T00:51:34.708Z,96488.00
2022-10-02T00:55:55.977Z,96503.00
2022-10-02T01:00:19.269Z,96504.00
2022-10-02T01:04:52.806Z,96493.00
2022-10-02T01:09:29.634Z,96497.00
2022-10-02T01:13:35.007Z,96486.00
2022-10-02T01:18:08.732Z,96484.00
2022-10-02T01:22:19.370Z,96498.00
2022-10-02T01:26:48.522Z,96504.00
2022-10-02T01:30:56.005Z,96514.00
2022-10-02T01:35:27.976Z,96502.00
2022-10-02T01:39:32.950Z,96502.00
2022-10-02T01:44:08.315Z,96498.00
2022-10-02T01:48:17.732Z,96494.00
2022-10-02T01:52:39.494Z,96498.00
2022-10-02T01:56:59.152Z,96487.00
2022-10-02T02:01:39.588Z,96495.00
2022-10-02T02:05:50.818Z,96500.00
2022-10-02T02:10:21.552Z,96497.00
2022-10-02T02:14:29.268Z,96507.00
2022-10-02T02:19:05.684Z,96507.00
2022-10-02T02:23:18.506Z,96500.00
2022-10-02T02:27:26.657Z,96493.00
2022-10-02T02:31:37.365Z,96493.00
2022-10-02T02:36:09.023Z,96498.00
2022-10-02T02:40:21.213Z,96500.00
2022-10-02T02:44:51.912Z,96510.00
2022-10-02T02:49:00.966Z,96508.00
2022-10-02T02:53:35.949Z,96512.00
2022-10-02T02:57:44.814Z,96507.00
2022-10-02T03:02:15.869Z,96513.00
2022-10-02T03:06:32.054Z,96523.00
2022-10-02T03:11:06.414Z,96530.00
2022-10-02T03:15:41.670Z,96521.00
2022-10-02T03:19:49.309Z,96518.00
2022-10-02T03:24:02.734Z,96525.00
2022-10-02T03:28:54.274Z,96508.00
2022-10-02T03:33:01.129Z,96514.00
2022-10-02T03:37:32.645Z,96515.00
2022-10-02T03:42:09.274Z,96520.00
2022-10-02T03:46:13.779Z,96519.00
2022-10-02T03:50:17.193Z,96531.00
2022-10-02T03:54:55.586Z,96506.00
2022-10-02T03:59:34.733Z,96531.00
2022-10-02T04:03:46.914Z,96528.00
2022-10-02T04:08:20.499Z,96516.00
2022-10-02T04:12:53.289Z,96512.00
2022-10-02T04:17:07.503Z,96520.00
2022-10-02T04:21:42.199Z,96534.00
2022-10-02T04:26:14.899Z,96520.00
2022-10-02T04:30:20.071Z,96513.00
2022-10-02T04:34:23.229Z,96518.00
2022-10-02T04:39:13.541Z,96522.00
2022-10-02T04:43:25.095Z,96525.00
2022-10-02T04:48:12.118Z,96523.00
2022-10-02T04:52:28.199Z,96515.00
2022-10-02T04:56:52.973Z,96507.00
2022-10-02T05:01:04.907Z,96518.00
2022-10-02T05:05:21.947Z,96518.00
2022-10-02T05:09:50.366Z,96519.00
2022-10-02T05:14:12.617Z,96532.00
2022-10-02T05:18:39.213Z,96526.00
2022-10-02T05:23:12.967Z,96539.00
2022-10-02T05:27:51.510Z,96549.00
2022-10-02T05:32:33.833Z,96552.00
2022-10-02T05:37:04.580Z,96550.00
2022-10-02T05:41:15.797Z,96545.00
2022-10-02T05:45:51.376Z,96552.00
2022-10-02T05:50:27.490Z,96560.00
2022-10-02T05:55:05.110Z,96558.00
2022-10-02T05:59:35.701Z,96554.00
2022-10-02T06:04:15.022Z,96548.00
2022-10-02T06:08:52.825Z,96547.00
2022-10-02T06:13:00.020Z,96554.00
2022-10-02T06:17:32.809Z,96554.00
2022-10-02T06:22:09.304Z,96549.00
2022-10-02T06:31:44.140Z,96548.00
2022-10-02T06:36:23.420Z,96545.00
2022-10-02T06:40:54.490Z,96559.00
2022-10-02T06:45:33.625Z,96543.00
2022-10-02T06:49:50.255Z,96550.00
2022-10-02T06:54:26.550Z,96550.00
2022-10-02T06:58:59.148Z,96549.00
2022-10-02T07:03:31.571Z,96549.00
2022-10-02T07:08:03.386Z,96551.00
2022-10-02T07:12:41.609Z,96544.00
2022-10-02T07:16:58.306Z,96550.00
2022-10-02T07:21:35.179Z,96544.00
2022-10-02T07:25:58.233Z,96541.00
2022-10-02T07:30:19.023Z,96538.00
2022-10-02T07:34:57.598Z,96539.00
2022-10-02T07:39:34.294Z,96533.00
2022-10-02T07:43:49.664Z,96544.00
2022-10-02T07:48:09.316Z,96550.00
2022-10-02T07:52:40.798Z,96555.00
2022-10-02T07:57:20.800Z,96564.00
2022-10-02T08:01:46.083Z,96567.00
2022-10-02T08:06:17.849Z,96559.00
2022-10-02T08:10:54.306Z,96570.00
2022-10-02T08:15:34.634Z,96572.00
2022-10-02T08:19:44.154Z,96567.00
2022-10-02T08:23:53.962Z,96580.00
2022-10-02T08:28:02.887Z,96577.00
2022-10-02T08:32:11.550Z,96576.00
2022-10-02T08:36:48.514Z,96567.00
2022-10-02T08:41:33.990Z,96574.00
2022-10-02T08:46:25.883Z,96569.00
2022-10-02T08:50:54.813Z,96568.00
2022-10-02T08:55:27.460Z,96560.00
2022-10-02T09:00:19.283Z,96560.00
2022-10-02T09:05:01.214Z,96560.00
2022-10-02T09:09:51.684Z,96555.00
2022-10-02T09:19:41.910Z,96538.00
2022-10-02T09:24:23.301Z,96525.00
2022-10-02T09:29:15.849Z,96526.00
2022-10-02T09:33:56.125Z,96529.00
2022-10-02T09:38:39.218Z,96528.00
2022-10-02T09:43:24.613Z,96524.00
2022-10-02T09:53:35.474Z,96534.00
2022-10-02T10:03:30.461Z,96517.00
2022-10-02T10:08:04.431Z,96509.00
2022-10-02T10:12:56.690Z,96514.00
2022-10-02T10:17:45.640Z,96514.00
2022-10-02T10:33:52.229Z,96513.00
2022-10-02T10:38:39.786Z,96514.00
2022-10-02T10:43:19.632Z,96518.00
2022-10-02T10:48:06.615Z,96521.00
2022-10-02T10:52:34.390Z,96506.00
2022-10-02T10:57:00.775Z,96499.00
2022-10-02T11:01:38.333Z,96487.00
2022-10-02T11:06:20.241Z,96471.00
2022-10-02T11:10:53.277Z,96474.00
2022-10-02T11:15:38.630Z,96475.00
2022-10-02T11:20:02.790Z,96471.00
2022-10-02T11:24:35.829Z,96473.00
2022-10-02T11:29:23.826Z,96473.00
2022-10-02T11:34:03.922Z,96462.00
2022-10-02T11:38:38.638Z,96463.00
2022-10-02T11:43:18.987Z,96458.00
2022-10-02T11:47:55.156Z,96457.00
2022-10-02T11:52:36.450Z,96461.00
2022-10-02T11:57:06.125Z,96446.00
2022-10-02T12:01:37.190Z,96436.00
2022-10-02T12:06:15.597Z,96457.00
2022-10-02T12:10:48.686Z,96461.00
2022-10-02T12:15:25.255Z,96450.00
2022-10-02T12:20:19.422Z,96461.00
2022-10-02T12:25:00.784Z,96454.00
2022-10-02T12:29:12.856Z,96453.00
2022-10-02T12:33:47.218Z,96464.00
2022-10-02T12:38:17.944Z,96467.00
2022-10-02T12:43:10.537Z,96451.00
2022-10-02T12:47:54.579Z,96458.00
2022-10-02T12:52:43.745Z,96465.00
2022-10-02T13:03:00.221Z,96463.00
2022-10-02T13:07:41.625Z,96443.00
2022-10-02T13:12:23.361Z,96436.00
2022-10-02T13:17:09.982Z,96418.00
2022-10-02T13:21:39.884Z,96422.00
2022-10-02T13:26:17.224Z,96398.00
2022-10-02T13:36:20.146Z,96437.00
2022-10-02T13:40:31.160Z,96444.00
2022-10-02T13:45:03.802Z,96465.00
2022-10-02T13:49:46.602Z,96472.00
2022-10-02T13:54:36.843Z,96433.00
2022-10-02T14:04:37.904Z,96436.00
2022-10-02T14:09:20.606Z,96427.00
2022-10-02T14:14:03.340Z,96421.00
2022-10-02T14:18:43.488Z,96403.00
2022-10-02T14:23:13.009Z,96387.00
2022-10-02T14:27:56.616Z,96382.00
2022-10-02T14:32:34.770Z,96375.00
2022-10-02T14:37:03.121Z,96389.00
2022-10-02T14:41:49.327Z,96404.00
2022-10-02T14:46:22.503Z,96418.00
2022-10-02T14:50:53.034Z,96413.00
2022-10-02T14:55:34.639Z,96413.00
2022-10-02T15:00:27.071Z,96419.00
2022-10-02T15:04:48.259Z,96413.00
2022-10-02T15:09:11.596Z,96417.00
2022-10-02T15:13:49.047Z,96408.00
2022-10-02T15:18:25.115Z,96417.00
2022-10-02T15:22:59.086Z,96398.00
2022-10-02T15:27:39.634Z,96390.00
2022-10-02T15:32:10.699Z,96389.00
2022-10-02T15:36:54.238Z,96396.00
2022-10-02T15:41:32.178Z,96410.00
2022-10-02T15:46:05.533Z,96394.00
2022-10-02T15:50:36.799Z,96403.00
2022-10-02T15:55:09.241Z,96404.00
2022-10-02T15:59:44.339Z,96411.00
2022-10-02T16:04:14.641Z,96430.00
2022-10-02T16:08:45.238Z,96431.00
2022-10-02T16:13:27.105Z,96425.00
2022-10-02T16:18:07.259Z,96423.00
2022-10-02T16:22:53.713Z,96420.00
2022-10-02T16:27:26.503Z,96415.00
2022-10-02T16:32:04.762Z,96433.00
2022-10-02T16:36:41.472Z,96443.00
2022-10-02T16:41:18.672Z,96435.00
2022-10-02T16:45:59.724Z,96429.00
2022-10-02T16:50:27.646Z,96436.00
2022-10-02T16:55:05.525Z,96429.00
2022-10-02T16:59:44.178Z,96435.00
2022-10-02T17:04:29.868Z,96448.00
2022-10-02T17:08:40.483Z,96449.00
2022-10-02T17:13:16.259Z,96470.00
2022-10-02T17:17:56.217Z,96477.00
2022-10-02T17:22:28.846Z,96504.00
2022-10-02T17:27:08.192Z,96511.00
2022-10-02T17:31:41.418Z,96527.00
2022-10-02T17:36:18.905Z,96525.00
2022-10-02T17:40:52.698Z,96529.00
2022-10-02T17:45:33.201Z,96541.00
2022-10-02T17:50:22.232Z,96551.00
2022-10-02T17:55:13.045Z,96569.00
2022-10-02T18:00:00.243Z,96574.00
2022-10-02T18:04:38.241Z,96590.00
2022-10-02T18:09:12.023Z,96590.00
2022-10-02T18:13:49.422Z,96587.00
2022-10-02T18:18:21.364Z,96595.00
2022-10-02T18:23:00.035Z,96588.00
2022-10-02T18:27:37.868Z,96596.00
2022-10-02T18:32:15.541Z,96606.00
2022-10-02T18:36:56.297Z,96606.00
2022-10-02T18:41:33.276Z,96613.00
2022-10-02T18:46:08.145Z,96624.00
2022-10-02T18:50:51.867Z,96632.00
2022-10-02T18:55:25.409Z,96637.00
2022-10-02T18:59:55.348Z,96637.00
2022-10-02T19:04:33.595Z,96632.00
2022-10-02T19:09:19.194Z,96644.00
2022-10-02T19:13:40.696Z,96654.00
2022-10-02T19:18:19.336Z,96646.00
2022-10-02T19:22:51.372Z,96656.00
2022-10-02T19:27:26.271Z,96655.00
2022-10-02T19:32:10.330Z,96658.00
2022-10-02T19:36:38.456Z,96650.00
2022-10-02T19:41:16.135Z,96665.00
2022-10-02T19:45:42.423Z,96679.00
2022-10-02T19:50:23.406Z,96672.00
2022-10-02T19:54:51.105Z,96684.00
2022-10-02T19:59:27.718Z,96676.00
2022-10-02T20:08:53.114Z,96685.00
2022-10-02T20:13:24.487Z,96687.00
2022-10-02T20:17:58.554Z,96689.00
2022-10-02T20:22:06.350Z,96693.00
2022-10-02T20:26:14.964Z,96696.00
2022-10-02T20:30:20.464Z,96690.00
2022-10-02T20:34:28.865Z,96700.00
2022-10-02T20:38:37.895Z,96708.00
2022-10-02T20:43:14.289Z,96700.00
2022-10-02T20:48:10.627Z,96700.00
2022-10-02T20:52:55.077Z,96717.00
2022-10-02T20:58:00.025Z,96721.00
2022-10-02T21:02:21.566Z,96724.00
2022-10-02T21:07:06.737Z,96736.00
2022-10-02T21:11:20.264Z,96734.00
2022-10-02T21:16:01.343Z,96734.00
2022-10-02T21:20:50.900Z,96747.00
2022-10-02T21:25:24.605Z,96756.00
2022-10-02T21:30:22.659Z,96766.00
2022-10-02T21:34:41.693Z,96769.00
2022-10-02T21:39:34.852Z,96771.00
2022-10-02T21:44:24.714Z,96772.00
2022-10-02T21:49:07.157Z,96783.00
2022-10-02T21:53:51.220Z,96788.00
2022-10-02T21:58:21.015Z,96798.00
2022-10-02T22:02:39.062Z,96800.00
2022-10-02T22:06:51.282Z,96809.00
2022-10-02T22:11:06.814Z,96810.00
2022-10-02T22:15:19.294Z,96810.00
2022-10-02T22:19:59.162Z,96803.00
2022-10-02T22:24:34.660Z,96815.00
2022-10-02T22:28:44.982Z,96820.00
2022-10-02T22:33:14.015Z,96817.00
2022-10-02T22:37:44.396Z,96817.00
2022-10-02T22:41:56.062Z,96815.00
2022-10-02T22:46:29.790Z,96805.00
2022-10-02T22:50:39.106Z,96824.00
2022-10-02T22:55:10.830Z,96826.00
2022-10-02T22:59:19.318Z,96832.00
2022-10-02T23:03:31.481Z,96832.00
2022-10-02T23:08:03.382Z,96836.00
2022-10-02T23:12:12.586Z,96843.00
2022-10-02T23:16:24.365Z,96844.00
2022-10-02T23:20:54.883Z,96840.00
2022-10-02T23:25:06.224Z,96836.00
2022-10-02T23:29:29.614Z,96849.00
2022-10-02T23:33:44.210Z,96849.00
2022-10-02T23:37:54.827Z,96848.00
2022-10-02T23:42:00.481Z,96851.00
2022-10-02T23:46:08.091Z,96861.00
2022-10-02T23:50:22.814Z,96859.00
2022-10-02T23:54:54.002Z,96860.00
2022-10-02T23:59:12.757Z,96874.00
